Time;durP1;ratioP1;P1;durP2;ratioP2;P2;SDS_P1;SDS_P2;PMS_P1;PMS_P2;Temp;Humidity;BMP_temperature;BMP_pressure;BME280_temperature;BME280_humidity;BME280_pressure;Samples;Min_cycle;Max_cycle;Signal;HPM_P1;HPM_P2
2023/01/08 00:02:33;;;;;;;3.05;2.30;;;13.50;99.90;;;;;;1930624;74;22502;-91
2023/01/08 00:05:25;;;;;;;1.47;0.80;;;12.90;99.90;;;;;;1868104;75;21125;-92
2023/01/08 00:08:20;;;;;;;2.60;1.90;;;13.00;99.90;;;;;;1879004;76;21121;-91
2023/01/08 00:11:15;;;;;;;3.25;2.40;;;13.10;99.90;;;;;;1915260;74;21171;-92
2023/01/08 00:14:07;;;;;;;3.20;2.58;;;12.70;99.90;;;;;;1934795;74;21096;-92
2023/01/08 08:20:26;;;;;;;3.62;2.10;;;9.30;99.90;;;;;;1977935;72;22170;-93
2023/01/08 09:45:43;;;;;;;4.15;2.55;;;9.10;99.90;;;;;;2037504;69;22114;-93
2023/01/08 09:48:39;;;;;;;5.10;3.00;;;9.00;99.90;;;;;;1967936;72;21043;-93
2023/01/08 09:51:33;;;;;;;3.55;2.60;;;9.00;99.90;;;;;;1964300;72;21137;-92
2023/01/08 09:57:24;;;;;;;5.03;2.47;;;9.00;99.90;;;;;;1943257;72;22196;-92
2023/01/08 10:00:19;;;;;;;5.08;2.60;;;9.10;99.90;;;;;;1917847;75;21065;-94
2023/01/08 10:03:13;;;;;;;4.15;2.45;;;8.90;99.90;;;;;;1917966;75;21054;-90
2023/01/08 10:06:11;;;;;;;4.28;2.37;;;9.00;99.90;;;;;;1917784;75;21132;-92
2023/01/08 10:12:04;;;;;;;;;;;;;;;;;;;;;
2023/01/08 10:19:11;;;;;;;4.83;3.25;;;9.20;99.90;;;;;;2024156;69;22199;-92
2023/01/08 10:22:03;;;;;;;5.22;2.72;;;9.20;99.90;;;;;;1983109;72;21113;-92
2023/01/08 10:25:05;;;;;;;3.90;2.83;;;9.20;99.90;;;;;;1975657;71;21091;-92
2023/01/08 10:27:59;;;;;;;4.00;2.58;;;9.30;99.90;;;;;;1988585;71;21166;-92
2023/01/08 10:30:53;;;;;;;4.00;2.87;;;9.40;99.90;;;;;;1995640;71;21093;-92
2023/01/08 10:33:49;;;;;;;6.08;3.27;;;9.40;99.90;;;;;;1984662;71;21086;-93
2023/01/08 10:37:30;;;;;;;7.17;3.02;;;9.40;99.90;;;;;;1980436;72;21104;-93
2023/01/08 10:43:55;;;;;;;12.07;3.10;;;9.40;99.90;;;;;;2000615;71;22116;-92
2023/01/08 10:46:50;;;;;;;3.00;2.47;;;9.40;99.90;;;;;;1953665;73;21093;-92
2023/01/08 10:53:06;;;;;;;;;;;;;;;;;;;;;
2023/01/08 10:56:12;;;;;;;5.22;3.17;;;9.40;99.90;;;;;;1953158;73;21094;-92
2023/01/08 10:59:24;;;;;;;4.08;2.37;;;9.40;99.90;;;;;;2031906;70;21022;-90
2023/01/08 11:02:33;;;;;;;4.42;3.00;;;9.30;99.90;;;;;;2033762;70;21014;-91
2023/01/08 11:05:37;;;;;;;5.05;3.10;;;9.30;99.90;;;;;;2032378;70;21127;-91
2023/01/08 11:08:33;;;;;;;5.45;3.05;;;9.30;99.90;;;;;;2032301;70;21118;-92
2023/01/08 11:11:30;;;;;;;6.50;3.42;;;9.30;99.90;;;;;;2031679;70;21064;-92
2023/01/08 11:18:46;;;;;;;4.83;3.20;;;9.50;99.90;;;;;;2043211;69;22241;-93
2023/01/08 11:21:45;;;;;;;5.25;3.30;;;9.60;99.90;;;;;;1968364;72;21078;-91
2023/01/08 11:24:55;;;;;;;4.95;3.00;;;9.60;99.90;;;;;;1970779;72;21107;-92
2023/01/08 11:27:48;;;;;;;5.47;3.40;;;9.70;99.90;;;;;;1967170;72;21086;-90
2023/01/08 11:30:42;;;;;;;3.12;2.83;;;9.70;99.90;;;;;;1964370;72;21122;-90
2023/01/08 11:47:03;;;;;;;5.55;3.40;;;9.80;99.90;;;;;;1940835;72;22158;-91
2023/01/08 11:50:06;;;;;;;7.15;3.70;;;9.80;99.90;;;;;;1894620;75;21111;-90
2023/01/08 11:53:24;;;;;;;4.60;2.70;;;9.80;99.90;;;;;;1892776;75;21095;-91
2023/01/08 11:56:31;;;;;;;6.95;3.67;;;9.70;99.90;;;;;;1885463;74;21132;-91
2023/01/08 12:02:55;;;;;;;6.55;3.20;;;9.70;99.90;;;;;;1979329;71;22122;-88
2023/01/08 12:05:51;;;;;;;5.20;2.85;;;9.70;99.90;;;;;;1966099;72;21143;-91
2023/01/08 12:08:49;;;;;;;4.87;2.92;;;9.60;99.90;;;;;;2040381;69;21566;-92
2023/01/08 12:11:47;;;;;;;3.60;2.72;;;9.60;99.90;;;;;;2039444;69;21122;-91
2023/01/08 12:14:58;;;;;;;5.53;3.15;;;9.70;99.90;;;;;;1980992;72;21085;-91
2023/01/08 12:18:02;;;;;;;6.42;3.87;;;9.70;99.90;;;;;;2032221;70;21075;-90
2023/01/08 12:21:12;;;;;;;5.50;3.65;;;9.70;99.90;;;;;;2031821;70;21081;-91
2023/01/08 12:24:18;;;;;;;5.58;4.00;;;9.70;99.90;;;;;;2033648;70;21078;-90
2023/01/08 12:27:13;;;;;;;6.75;3.98;;;9.70;99.90;;;;;;2031525;70;21093;-91
2023/01/08 12:30:15;;;;;;;7.62;4.83;;;9.70;99.90;;;;;;2035072;69;21077;-91
2023/01/08 12:37:23;;;;;;;7.60;4.33;;;9.80;99.90;;;;;;2079641;68;22228;-91
2023/01/08 12:40:19;;;;;;;6.53;4.20;;;9.80;99.90;;;;;;2035079;69;21062;-90
2023/01/08 12:46:12;;;;;;;5.80;3.83;;;9.90;99.90;;;;;;1944521;72;22181;-91
2023/01/08 13:14:42;;;;;;;6.42;4.17;;;10.30;99.90;;;;;;1950903;72;22175;-92
2023/01/08 13:17:49;;;;;;;7.05;4.97;;;10.20;99.90;;;;;;1886269;75;21091;-91
2023/01/08 13:20:42;;;;;;;5.25;4.03;;;10.20;99.90;;;;;;1909780;75;21135;-90
2023/01/08 13:23:37;;;;;;;5.42;3.92;;;10.10;99.90;;;;;;1891948;75;21090;-90
2023/01/08 13:26:32;;;;;;;5.72;3.70;;;10.10;99.90;;;;;;1886470;75;21093;-91
2023/01/08 13:29:38;;;;;;;6.62;4.90;;;10.20;99.90;;;;;;1917290;75;21156;-91
2023/01/08 13:32:45;;;;;;;7.20;5.35;;;10.30;99.90;;;;;;1906014;75;21183;-92
2023/01/08 13:38:19;;;;;;;8.93;5.00;;;10.50;99.90;;;;;;1933253;72;22179;-92
2023/01/08 13:41:27;;;;;;;5.90;4.05;;;10.60;99.90;;;;;;1895202;74;21068;-91
2023/01/08 13:48:05;;;;;;;4.00;3.15;;;10.60;99.90;;;;;;1991032;71;22260;-91
2023/01/08 13:50:57;;;;;;;4.90;3.50;;;10.60;99.90;;;;;;1948593;73;21082;-90
2023/01/08 13:56:30;;;;;;;4.70;3.42;;;10.80;99.90;;;;;;1958500;72;22209;-90
2023/01/08 13:59:33;;;;;;;5.72;3.87;;;10.80;99.90;;;;;;1913695;73;21099;-94
2023/01/08 14:02:29;;;;;;;6.37;4.15;;;10.80;99.90;;;;;;1913297;74;21087;-91
2023/01/08 14:05:30;;;;;;;6.22;4.28;;;10.80;99.90;;;;;;1905620;75;21080;-91
2023/01/08 14:08:24;;;;;;;6.55;4.62;;;10.90;99.90;;;;;;1918006;74;21160;-90
2023/01/08 14:11:16;;;;;;;9.68;4.17;;;10.90;99.90;;;;;;1915684;74;21052;-91
2023/01/08 14:16:54;;;;;;;6.50;4.78;;;10.80;99.90;;;;;;1942905;72;22977;-90
2023/01/08 14:19:47;;;;;;;6.87;5.05;;;10.70;99.90;;;;;;1905194;75;21063;-91
2023/01/08 14:26:29;;;;;;;6.10;5.00;;;10.70;99.90;;;;;;1983613;71;22233;-93
2023/01/08 14:32:02;;;;;;;5.50;4.25;;;10.50;99.90;;;;;;1948119;72;22242;-93
2023/01/08 14:34:56;;;;;;;6.42;4.22;;;10.40;99.90;;;;;;1888369;75;21146;-92
2023/01/08 14:37:48;;;;;;;6.17;4.45;;;10.40;99.90;;;;;;1898755;75;21205;-93
2023/01/08 14:44:29;;;;;;;6.60;4.58;;;10.20;99.90;;;;;;2051154;68;22676;-93
2023/01/08 14:47:22;;;;;;;4.97;4.30;;;10.10;99.90;;;;;;2002111;70;21071;-92
2023/01/08 14:50:21;;;;;;;5.67;4.30;;;10.10;99.90;;;;;;2014524;70;21042;-91
2023/01/08 14:53:18;;;;;;;7.05;4.80;;;10.10;99.90;;;;;;2026569;70;21086;-91
2023/01/08 14:56:13;;;;;;;5.37;4.72;;;10.10;99.90;;;;;;2012822;70;21043;-91
2023/01/08 14:59:11;;;;;;;6.67;4.85;;;10.00;99.90;;;;;;2017609;70;21111;-91
2023/01/08 15:02:06;;;;;;;6.55;5.03;;;10.00;99.90;;;;;;2022247;70;21118;-92
2023/01/08 15:05:14;;;;;;;7.70;5.35;;;10.10;99.90;;;;;;2016133;70;21071;-92
2023/01/08 15:08:22;;;;;;;7.12;5.50;;;10.10;99.90;;;;;;2000245;70;21059;-91
2023/01/08 15:30:30;;;;;;;7.75;5.58;;;9.90;99.90;;;;;;2075662;68;22273;-92
2023/01/08 15:36:34;;;;;;;7.90;5.70;;;9.90;99.90;;;;;;2068887;68;22072;-91
2023/01/08 15:45:31;;;;;;;7.30;5.08;;;9.80;99.90;;;;;;1915184;73;21185;-91
2023/01/08 15:51:52;;;;;;;7.08;5.10;;;9.80;99.90;;;;;;1927031;74;22189;-93
2023/01/08 15:54:44;;;;;;;8.25;6.20;;;9.70;99.90;;;;;;1864422;76;21149;-91
2023/01/08 15:57:35;;;;;;;6.42;4.92;;;9.70;99.90;;;;;;1897264;75;21060;-91
2023/01/08 16:00:32;;;;;;;6.22;5.30;;;9.70;99.90;;;;;;1936696;73;21129;-93
2023/01/08 16:06:16;;;;;;;7.87;6.28;;;9.70;99.90;;;;;;1951310;72;22227;-92
2023/01/08 16:12:01;;;;;;;7.03;4.75;;;9.70;99.90;;;;;;1946636;72;22214;-92
2023/01/08 16:14:54;;;;;;;6.17;4.55;;;9.80;99.90;;;;;;1923120;73;21567;-91
2023/01/08 16:17:45;;;;;;;6.37;4.85;;;9.80;99.90;;;;;;1918555;73;21205;-91
2023/01/08 16:20:38;;;;;;;7.37;4.85;;;9.80;99.90;;;;;;1917624;75;21190;-90
2023/01/08 16:23:29;;;;;;;8.15;4.53;;;9.80;99.90;;;;;;1917826;73;21107;-91
2023/01/08 16:26:21;;;;;;;6.67;4.40;;;9.80;99.90;;;;;;1917060;73;21223;-91
2023/01/08 16:29:13;;;;;;;6.22;4.28;;;9.80;99.90;;;;;;1920451;73;21161;-91
2023/01/08 16:32:08;;;;;;;5.90;4.45;;;9.70;99.90;;;;;;1915397;75;21174;-89
2023/01/08 16:35:00;;;;;;;9.63;4.42;;;9.60;99.90;;;;;;1928329;73;21058;-89
2023/01/08 16:37:52;;;;;;;5.72;4.25;;;9.70;99.90;;;;;;1928818;73;21089;-90
2023/01/08 16:56:33;;;;;;;5.95;5.03;;;9.60;99.90;;;;;;1960888;72;22170;-92
2023/01/08 16:59:31;;;;;;;6.72;5.37;;;9.70;99.90;;;;;;1923342;73;21161;-91
2023/01/08 17:02:23;;;;;;;8.18;5.87;;;9.70;99.90;;;;;;1886716;75;21141;-92
2023/01/08 17:05:14;;;;;;;7.55;5.95;;;9.80;99.90;;;;;;1930806;74;21094;-92
2023/01/08 17:08:07;;;;;;;6.33;5.37;;;9.80;99.90;;;;;;1906208;73;21148;-91
2023/01/08 17:10:59;;;;;;;7.95;5.70;;;9.80;99.90;;;;;;1907176;75;21143;-92
2023/01/08 17:13:55;;;;;;;6.97;5.40;;;9.80;99.90;;;;;;1906267;75;21101;-94
2023/01/08 17:16:49;;;;;;;7.28;5.62;;;9.80;99.90;;;;;;1915887;74;21095;-93
2023/01/08 17:19:47;;;;;;;6.92;4.92;;;9.70;99.90;;;;;;1906605;73;21087;-93
2023/01/08 17:22:46;;;;;;;7.85;5.28;;;9.70;99.90;;;;;;1905573;75;21169;-93
2023/01/08 17:25:45;;;;;;;8.63;5.60;;;9.70;99.90;;;;;;1907551;74;21621;-92
2023/01/08 17:28:42;;;;;;;7.55;5.25;;;9.70;99.90;;;;;;1922182;74;21086;-94
2023/01/08 17:31:38;;;;;;;7.15;5.80;;;9.70;99.90;;;;;;1905172;75;21195;-93
2023/01/08 17:34:28;;;;;;;6.67;5.67;;;9.70;99.90;;;;;;1920049;74;21205;-93
2023/01/08 17:37:26;;;;;;;8.10;6.15;;;9.70;99.90;;;;;;1911456;74;21086;-93
2023/01/08 17:40:19;;;;;;;8.15;6.20;;;9.70;99.90;;;;;;1918251;74;21129;-92
2023/01/08 17:43:11;;;;;;;8.38;6.85;;;9.70;99.90;;;;;;1905194;75;21087;-92
2023/01/08 17:46:09;;;;;;;7.60;6.22;;;9.60;99.90;;;;;;1906773;74;21109;-95
2023/01/08 17:49:23;;;;;;;7.60;6.47;;;9.70;99.90;;;;;;1905052;75;21153;-93
2023/01/08 17:52:19;;;;;;;10.15;7.37;;;9.70;99.90;;;;;;1906486;74;21155;-91
2023/01/08 17:55:12;;;;;;;9.40;7.55;;;9.80;99.90;;;;;;1906864;75;21114;-93
2023/01/08 19:03:52;;;;;;;8.03;5.47;;;9.80;99.90;;;;;;1966834;71;22232;-93
2023/01/08 19:06:51;;;;;;;9.18;5.55;;;9.80;99.90;;;;;;1919349;75;21164;-93
2023/01/08 19:14:23;;;;;;;6.35;5.08;;;9.50;99.90;;;;;;1918028;74;22236;-91
2023/01/08 19:17:16;;;;;;;6.05;5.20;;;9.40;99.90;;;;;;1904629;75;21137;-92
2023/01/08 19:20:10;;;;;;;7.37;5.83;;;9.40;99.90;;;;;;1923008;74;21142;-94
2023/01/08 19:23:04;;;;;;;7.90;5.92;;;9.50;99.90;;;;;;1923583;74;21179;-93
2023/01/08 20:16:05;;;;;;;8.23;6.30;;;9.80;99.90;;;;;;1919820;72;21217;-93
2023/01/08 21:39:37;;;;;;;10.00;7.80;;;9.90;99.90;;;;;;1940866;73;22240;-92
2023/01/08 21:45:38;;;;;;;9.88;7.78;;;9.80;99.90;;;;;;1923814;73;21098;-90
2023/01/08 21:57:19;;;;;;;11.12;8.05;;;9.60;99.90;;;;;;1945389;72;22218;-91
2023/01/08 22:00:15;;;;;;;9.95;7.58;;;9.50;99.90;;;;;;1925110;73;21172;-91
2023/01/08 22:10:30;;;;;;;10.03;8.18;;;9.40;99.90;;;;;;1930501;72;22197;-93
2023/01/08 22:13:22;;;;;;;9.48;8.13;;;9.50;99.90;;;;;;1877697;75;21069;-90
2023/01/08 22:16:30;;;;;;;;;;;;;;;;;;;;;
2023/01/08 22:22:00;;;;;;;9.38;7.10;;;9.50;99.90;;;;;;1941843;72;22206;-91
2023/01/08 22:24:52;;;;;;;8.55;6.67;;;9.30;99.90;;;;;;1895267;75;21060;-90
2023/01/08 22:27:44;;;;;;;8.08;7.10;;;9.30;99.90;;;;;;1907849;75;21097;-91
2023/01/08 22:47:56;;;;;;;9.50;6.40;;;9.30;99.90;;;;;;1946532;72;22282;-91
2023/01/08 22:50:58;;;;;;;7.50;5.65;;;9.40;99.90;;;;;;1941112;73;21099;-92
2023/01/08 22:56:32;;;;;;;9.63;7.08;;;9.60;99.90;;;;;;1944702;72;22170;-91
2023/01/08 22:59:34;;;;;;;9.98;6.53;;;9.70;99.90;;;;;;1930048;73;21159;-93
2023/01/08 23:02:28;;;;;;;10.25;6.87;;;9.70;99.90;;;;;;1922320;73;21087;-91
2023/01/08 23:05:19;;;;;;;8.05;6.62;;;9.70;99.90;;;;;;1932999;73;21358;-93
2023/01/08 23:08:12;;;;;;;8.08;6.47;;;9.70;99.90;;;;;;1887657;75;21202;-92
2023/01/08 23:11:04;;;;;;;7.78;6.95;;;9.90;99.90;;;;;;1919675;73;21095;-91
2023/01/08 23:16:38;;;;;;;9.40;7.25;;;9.70;99.90;;;;;;1948335;72;22234;-93
2023/01/08 23:19:31;;;;;;;8.48;6.47;;;9.80;99.90;;;;;;1885644;75;21106;-92
2023/01/08 23:22:34;;;;;;;8.55;6.55;;;9.90;99.90;;;;;;1900893;75;21133;-93
2023/01/08 23:25:30;;;;;;;8.58;6.83;;;9.80;99.90;;;;;;1903002;75;21091;-92
2023/01/08 23:28:22;;;;;;;7.53;5.83;;;9.70;99.90;;;;;;1890357;75;21071;-92
2023/01/08 23:31:18;;;;;;;9.45;6.87;;;9.70;99.90;;;;;;1896258;75;21176;-92
2023/01/08 23:34:13;;;;;;;8.83;6.92;;;9.70;99.90;;;;;;1896418;75;21195;-91
2023/01/08 23:37:07;;;;;;;9.33;6.65;;;9.70;99.90;;;;;;1881760;76;21168;-93
2023/01/08 23:39:59;;;;;;;10.68;7.08;;;9.80;99.90;;;;;;1893574;75;21142;-92
2023/01/08 23:42:50;;;;;;;8.13;6.15;;;9.80;99.90;;;;;;1885080;75;21111;-93
2023/01/08 23:45:44;;;;;;;9.83;6.58;;;9.80;99.90;;;;;;1893734;75;21035;-93
2023/01/08 23:48:37;;;;;;;10.18;6.70;;;9.80;99.90;;;;;;1909444;75;21164;-92
2023/01/08 23:51:28;;;;;;;8.30;6.22;;;9.80;99.90;;;;;;1904916;75;21126;-92
2023/01/08 23:59:34;;;;;;;9.90;7.55;;;9.90;99.90;;;;;;2050954;68;27783;-93
